Time;durP1;ratioP1;P1;durP2;ratioP2;P2;SDS_P1;SDS_P2;PMS_P1;PMS_P2;Temp;Humidity;BMP_temperature;BMP_pressure;BME280_temperature;BME280_humidity;BME280_pressure;Samples;Min_cycle;Max_cycle;Signal;HPM_P1;HPM_P2
2022/03/16 00:00:16;;;;;;;;;22.00;20.25;;;;;;;;5029342;28;10796;-75
2022/03/16 00:02:43;;;;;;;;;21.75;21.75;;;;;;;;5023853;28;10854;-75
2022/03/16 00:05:11;;;;;;;;;22.50;22.00;;;;;;;;5021068;28;10798;-76
2022/03/16 00:07:38;;;;;;;;;22.00;18.50;;;;;;;;5021484;28;10915;-76
2022/03/16 00:10:09;;;;;;;;;23.00;20.25;;;;;;;;5022774;28;10776;-77
2022/03/16 00:12:36;;;;;;;;;21.00;21.00;;;;;;;;5021717;28;10828;-76
2022/03/16 00:15:03;;;;;;;;;26.50;24.50;;;;;;;;5020921;28;10960;-76
2022/03/16 00:17:31;;;;;;;;;21.75;21.25;;;;;;;;5021506;28;10901;-76
2022/03/16 00:19:58;;;;;;;;;24.00;24.00;;;;;;;;5020717;28;10914;-77
2022/03/16 00:22:25;;;;;;;;;24.00;23.00;;;;;;;;5021131;28;10842;-79
2022/03/16 00:24:52;;;;;;;;;21.75;21.75;;;;;;;;5020705;28;10833;-77
2022/03/16 00:27:22;;;;;;;;;32.75;28.25;;;;;;;;5021404;28;10923;-76
2022/03/16 00:29:50;;;;;;;;;25.75;23.00;;;;;;;;5031006;28;10992;-80
2022/03/16 00:32:17;;;;;;;;;24.00;21.00;;;;;;;;5021753;28;11000;-78
2022/03/16 00:34:44;;;;;;;;;26.75;26.75;;;;;;;;5019775;28;10819;-76
2022/03/16 00:37:12;;;;;;;;;29.00;24.50;;;;;;;;5020520;28;10929;-79
2022/03/16 00:39:39;;;;;;;;;30.50;24.00;;;;;;;;5020321;28;11829;-77
2022/03/16 00:42:07;;;;;;;;;26.50;22.50;;;;;;;;5022559;28;10885;-77
2022/03/16 00:44:36;;;;;;;;;28.50;25.00;;;;;;;;5021439;28;11686;-78
2022/03/16 00:47:03;;;;;;;;;28.50;27.00;;;;;;;;5021052;28;11819;-78
2022/03/16 00:49:31;;;;;;;;;22.00;20.50;;;;;;;;5028320;28;10924;-77
2022/03/16 00:51:59;;;;;;;;;28.00;25.25;;;;;;;;5020498;28;11511;-77
2022/03/16 00:54:26;;;;;;;;;27.50;23.75;;;;;;;;5020336;28;10849;-77
2022/03/16 00:56:53;;;;;;;;;22.00;19.25;;;;;;;;5020057;28;10973;-78
2022/03/16 00:59:20;;;;;;;;;29.00;25.75;;;;;;;;5023490;28;11820;-76
2022/03/16 01:01:49;;;;;;;;;30.25;26.25;;;;;;;;5020756;28;10923;-75
2022/03/16 01:04:16;;;;;;;;;29.25;25.00;;;;;;;;5025054;28;10911;-75
2022/03/16 01:06:44;;;;;;;;;27.50;25.50;;;;;;;;5022139;28;10883;-76
2022/03/16 01:09:11;;;;;;;;;30.75;28.25;;;;;;;;5018752;28;10993;-75
2022/03/16 01:11:38;;;;;;;;;23.75;23.50;;;;;;;;5003481;28;11221;-76
2022/03/16 01:14:05;;;;;;;;;24.00;22.25;;;;;;;;5021050;28;11053;-76
2022/03/16 01:16:35;;;;;;;;;28.75;28.75;;;;;;;;5026957;28;11040;-77
2022/03/16 01:19:04;;;;;;;;;28.75;28.25;;;;;;;;5026152;28;10997;-75
2022/03/16 01:21:34;;;;;;;;;19.25;18.25;;;;;;;;5019594;28;11851;-76
2022/03/16 01:24:01;;;;;;;;;26.00;26.00;;;;;;;;5021701;28;10977;-78
2022/03/16 01:26:29;;;;;;;;;34.75;33.25;;;;;;;;5018260;28;11028;-78
2022/03/16 01:28:56;;;;;;;;;33.25;28.50;;;;;;;;5023035;28;11073;-76
2022/03/16 01:31:23;;;;;;;;;32.75;27.25;;;;;;;;5022031;28;11026;-76
2022/03/16 01:33:51;;;;;;;;;42.50;35.50;;;;;;;;5004771;28;10982;-78
2022/03/16 01:36:20;;;;;;;;;25.00;24.00;;;;;;;;5011740;28;11045;-75
2022/03/16 01:38:48;;;;;;;;;28.00;24.50;;;;;;;;5018558;28;11713;-75
2022/03/16 01:41:15;;;;;;;;;34.00;27.25;;;;;;;;5003367;28;11028;-76
2022/03/16 01:43:43;;;;;;;;;31.50;27.25;;;;;;;;5018717;28;10879;-77
2022/03/16 01:46:10;;;;;;;;;27.75;25.00;;;;;;;;5020550;28;11637;-80
2022/03/16 01:48:37;;;;;;;;;26.25;24.25;;;;;;;;5022688;28;11553;-77
2022/03/16 01:51:05;;;;;;;;;23.75;23.75;;;;;;;;5021131;28;10821;-75
2022/03/16 01:53:33;;;;;;;;;23.25;23.25;;;;;;;;5014799;28;10807;-76
2022/03/16 01:56:01;;;;;;;;;23.00;23.00;;;;;;;;5034300;28;10808;-76
2022/03/16 01:58:28;;;;;;;;;26.50;23.25;;;;;;;;5022178;28;10717;-76
2022/03/16 02:00:56;;;;;;;;;28.25;24.00;;;;;;;;5027344;28;10717;-78
2022/03/16 02:03:23;;;;;;;;;28.25;25.50;;;;;;;;5008401;28;10746;-76
2022/03/16 02:05:50;;;;;;;;;22.25;22.25;;;;;;;;5015383;28;10750;-79
2022/03/16 02:08:18;;;;;;;;;29.75;23.25;;;;;;;;5002428;28;10697;-76
2022/03/16 02:10:47;;;;;;;;;27.50;24.75;;;;;;;;5015680;28;11323;-76
2022/03/16 02:13:14;;;;;;;;;18.75;18.75;;;;;;;;5022957;28;10590;-76
2022/03/16 02:15:42;;;;;;;;;25.50;25.50;;;;;;;;4998014;28;10684;-76
2022/03/16 02:18:09;;;;;;;;;20.75;20.75;;;;;;;;5020162;28;10755;-76
2022/03/16 02:20:37;;;;;;;;;24.50;23.25;;;;;;;;5020004;28;10719;-75
2022/03/16 02:23:07;;;;;;;;;24.50;20.50;;;;;;;;5019194;28;10773;-76
2022/03/16 02:25:35;;;;;;;;;27.50;25.50;;;;;;;;5012886;28;10688;-78
2022/03/16 02:28:02;;;;;;;;;28.25;26.00;;;;;;;;5021064;28;10861;-76
2022/03/16 02:30:31;;;;;;;;;27.75;24.75;;;;;;;;5020156;28;11410;-75
2022/03/16 02:32:58;;;;;;;;;20.50;19.00;;;;;;;;5025716;28;10576;-75
2022/03/16 02:35:31;;;;;;;;;33.00;28.25;;;;;;;;5021318;28;10594;-76
2022/03/16 02:37:58;;;;;;;;;24.75;23.50;;;;;;;;5020600;28;10488;-78
2022/03/16 02:40:27;;;;;;;;;21.75;20.00;;;;;;;;5019244;28;10548;-78
2022/03/16 02:42:55;;;;;;;;;24.75;24.00;;;;;;;;5018894;28;11339;-76
2022/03/16 02:45:22;;;;;;;;;23.25;23.25;;;;;;;;4990693;28;10674;-77
2022/03/16 02:47:50;;;;;;;;;20.50;20.50;;;;;;;;5022948;28;10762;-80
2022/03/16 02:50:19;;;;;;;;;28.50;24.00;;;;;;;;5025828;28;10641;-77
2022/03/16 02:52:47;;;;;;;;;24.50;23.25;;;;;;;;5019427;28;10687;-77
2022/03/16 02:55:15;;;;;;;;;26.50;19.25;;;;;;;;5019700;28;10471;-77
2022/03/16 02:57:44;;;;;;;;;26.25;23.00;;;;;;;;5018501;28;10627;-77
2022/03/16 03:00:13;;;;;;;;;23.75;20.25;;;;;;;;5020453;28;10439;-77
2022/03/16 03:02:41;;;;;;;;;24.50;22.75;;;;;;;;5020510;28;10539;-77
2022/03/16 03:05:09;;;;;;;;;29.75;24.25;;;;;;;;5024151;28;10777;-78
2022/03/16 03:07:36;;;;;;;;;18.50;18.50;;;;;;;;5017816;28;10489;-78
2022/03/16 03:10:04;;;;;;;;;21.75;18.75;;;;;;;;5019341;28;10818;-78
2022/03/16 03:12:35;;;;;;;;;28.25;24.50;;;;;;;;5019158;28;10807;-77
2022/03/16 03:15:05;;;;;;;;;25.50;20.25;;;;;;;;5017722;28;10686;-77
2022/03/16 03:17:32;;;;;;;;;31.50;26.25;;;;;;;;5020917;28;10644;-79
2022/03/16 03:20:00;;;;;;;;;26.25;25.25;;;;;;;;5011325;28;10680;-78
2022/03/16 03:22:28;;;;;;;;;24.25;23.50;;;;;;;;5022618;28;10754;-77
2022/03/16 03:24:56;;;;;;;;;25.50;25.50;;;;;;;;5021949;28;10643;-77
2022/03/16 03:27:24;;;;;;;;;25.50;24.75;;;;;;;;5025081;28;10878;-77
2022/03/16 03:29:51;;;;;;;;;24.75;19.00;;;;;;;;5022459;28;10671;-77
2022/03/16 03:32:20;;;;;;;;;25.75;24.50;;;;;;;;5022514;28;10627;-76
2022/03/16 03:34:51;;;;;;;;;20.50;20.50;;;;;;;;5025994;28;10631;-76
2022/03/16 03:37:19;;;;;;;;;27.00;26.50;;;;;;;;5021232;28;10665;-77
2022/03/16 03:39:47;;;;;;;;;25.50;25.50;;;;;;;;5019026;28;10728;-76
2022/03/16 03:42:14;;;;;;;;;24.50;22.75;;;;;;;;5021509;28;10699;-76
2022/03/16 03:44:42;;;;;;;;;27.50;24.75;;;;;;;;5028221;28;10772;-79
2022/03/16 03:47:11;;;;;;;;;26.25;22.50;;;;;;;;5022256;28;10673;-78
2022/03/16 03:49:42;;;;;;;;;23.75;19.25;;;;;;;;5020883;28;11308;-77
2022/03/16 03:52:10;;;;;;;;;25.50;23.75;;;;;;;;5022210;28;11463;-78
2022/03/16 03:54:37;;;;;;;;;22.75;21.25;;;;;;;;5021665;28;10954;-77
2022/03/16 03:57:05;;;;;;;;;28.75;23.75;;;;;;;;5026827;28;10783;-76
2022/03/16 03:59:32;;;;;;;;;20.50;17.25;;;;;;;;5022098;28;10516;-75
2022/03/16 04:01:59;;;;;;;;;18.75;17.75;;;;;;;;5021947;28;10653;-77
2022/03/16 04:04:27;;;;;;;;;24.75;20.75;;;;;;;;5017869;28;10529;-79
2022/03/16 04:06:56;;;;;;;;;15.00;15.00;;;;;;;;5021589;28;10547;-78
2022/03/16 04:09:23;;;;;;;;;18.75;18.75;;;;;;;;5022145;28;10340;-78
2022/03/16 04:11:50;;;;;;;;;23.75;21.75;;;;;;;;5035415;28;10363;-77
2022/03/16 04:14:18;;;;;;;;;21.00;20.25;;;;;;;;5022794;28;10440;-76
2022/03/16 04:16:45;;;;;;;;;26.00;24.75;;;;;;;;5025397;28;10495;-76
2022/03/16 04:19:12;;;;;;;;;17.50;17.50;;;;;;;;5021320;28;10685;-75
2022/03/16 04:21:39;;;;;;;;;21.25;19.00;;;;;;;;5021030;28;10525;-77
2022/03/16 04:24:09;;;;;;;;;17.75;17.75;;;;;;;;5019431;28;10410;-77
2022/03/16 04:26:36;;;;;;;;;17.50;17.50;;;;;;;;5022409;28;10346;-78
2022/03/16 04:29:04;;;;;;;;;21.50;17.75;;;;;;;;5023558;28;10261;-77
2022/03/16 04:31:31;;;;;;;;;22.00;19.00;;;;;;;;5021576;28;10196;-76
2022/03/16 04:33:58;;;;;;;;;20.00;18.50;;;;;;;;5020456;28;10233;-76
2022/03/16 04:36:29;;;;;;;;;22.00;21.00;;;;;;;;5011654;28;10356;-76
2022/03/16 04:38:57;;;;;;;;;13.75;13.75;;;;;;;;5020702;28;11021;-78
2022/03/16 04:41:26;;;;;;;;;21.25;18.50;;;;;;;;5021663;28;10368;-78
2022/03/16 04:43:53;;;;;;;;;15.25;15.25;;;;;;;;5021116;28;10360;-77
2022/03/16 04:46:21;;;;;;;;;20.00;20.00;;;;;;;;5002992;28;10016;-79
2022/03/16 04:48:48;;;;;;;;;19.00;16.75;;;;;;;;5034418;28;10293;-76
2022/03/16 04:51:15;;;;;;;;;18.25;16.50;;;;;;;;5019979;28;10282;-76
2022/03/16 04:53:42;;;;;;;;;21.00;18.00;;;;;;;;5021044;28;10324;-76
2022/03/16 04:56:10;;;;;;;;;19.75;17.75;;;;;;;;5020679;28;11132;-79
2022/03/16 04:58:38;;;;;;;;;17.75;15.00;;;;;;;;5004374;28;10406;-80
2022/03/16 05:01:06;;;;;;;;;12.00;11.00;;;;;;;;5019540;28;10193;-76
2022/03/16 05:03:33;;;;;;;;;22.25;18.25;;;;;;;;5023459;28;10275;-79
2022/03/16 05:06:00;;;;;;;;;20.00;18.75;;;;;;;;5019776;28;10463;-78
2022/03/16 05:08:28;;;;;;;;;21.50;20.50;;;;;;;;5023747;28;10441;-79
2022/03/16 05:10:55;;;;;;;;;24.50;24.50;;;;;;;;5021416;28;10519;-75
2022/03/16 05:13:22;;;;;;;;;19.50;19.00;;;;;;;;5020076;28;11218;-77
2022/03/16 05:15:51;;;;;;;;;23.75;23.00;;;;;;;;5021568;28;10524;-75
2022/03/16 05:18:19;;;;;;;;;28.25;24.25;;;;;;;;5025026;28;10516;-76
2022/03/16 05:20:46;;;;;;;;;17.75;17.75;;;;;;;;5029380;28;10562;-76
2022/03/16 05:23:13;;;;;;;;;28.75;24.00;;;;;;;;5021324;28;10539;-76
2022/03/16 05:25:41;;;;;;;;;24.50;22.25;;;;;;;;5020057;28;10685;-74
2022/03/16 05:28:09;;;;;;;;;21.75;18.50;;;;;;;;5033047;28;10729;-74
2022/03/16 05:30:36;;;;;;;;;21.50;21.50;;;;;;;;5018453;28;11329;-74
2022/03/16 05:33:05;;;;;;;;;20.75;20.75;;;;;;;;5024357;28;10505;-77
2022/03/16 05:35:32;;;;;;;;;22.25;19.50;;;;;;;;5021147;28;10660;-73
2022/03/16 05:38:00;;;;;;;;;21.75;21.75;;;;;;;;5020438;28;10462;-76
2022/03/16 05:40:27;;;;;;;;;21.75;18.75;;;;;;;;5017431;28;10923;-78
2022/03/16 05:42:55;;;;;;;;;19.00;19.00;;;;;;;;5017257;28;10511;-75
2022/03/16 05:45:22;;;;;;;;;23.50;22.50;;;;;;;;5020112;28;10574;-75
2022/03/16 05:47:50;;;;;;;;;19.75;17.75;;;;;;;;5016407;28;10686;-76
2022/03/16 05:50:19;;;;;;;;;24.00;21.00;;;;;;;;5020054;28;10598;-76
2022/03/16 05:52:47;;;;;;;;;20.00;19.00;;;;;;;;5019927;28;10492;-77
2022/03/16 05:55:15;;;;;;;;;22.75;19.75;;;;;;;;5020639;28;10488;-75
2022/03/16 05:57:44;;;;;;;;;17.75;17.75;;;;;;;;5023359;28;10656;-77
2022/03/16 06:00:14;;;;;;;;;29.25;23.50;;;;;;;;5022768;28;10486;-77
2022/03/16 06:02:42;;;;;;;;;22.75;22.25;;;;;;;;5018531;28;11651;-76
2022/03/16 06:05:10;;;;;;;;;26.00;18.00;;;;;;;;5017388;28;10926;-77
2022/03/16 06:07:38;;;;;;;;;30.00;25.50;;;;;;;;5016031;28;10605;-76
2022/03/16 06:10:07;;;;;;;;;28.75;24.75;;;;;;;;5016045;28;10686;-76
2022/03/16 06:12:35;;;;;;;;;33.75;31.25;;;;;;;;5018846;28;10821;-77
2022/03/16 06:15:02;;;;;;;;;27.00;27.00;;;;;;;;5029419;28;10969;-77
2022/03/16 06:17:29;;;;;;;;;26.25;24.25;;;;;;;;5017288;28;10739;-77
2022/03/16 06:19:56;;;;;;;;;21.25;20.75;;;;;;;;5017235;28;10756;-75
2022/03/16 06:22:24;;;;;;;;;20.75;20.75;;;;;;;;5017498;28;11544;-76
2022/03/16 06:24:52;;;;;;;;;18.50;18.50;;;;;;;;5001872;28;10770;-80
2022/03/16 06:27:20;;;;;;;;;25.00;23.25;;;;;;;;5019075;28;10541;-86
2022/03/16 06:29:48;;;;;;;;;18.50;18.50;;;;;;;;5025492;28;10664;-86
2022/03/16 06:32:15;;;;;;;;;27.50;25.00;;;;;;;;5019832;28;10601;-85
2022/03/16 06:34:42;;;;;;;;;29.50;26.75;;;;;;;;5020690;28;10673;-86
2022/03/16 06:37:10;;;;;;;;;28.00;24.00;;;;;;;;5021545;28;10659;-83
2022/03/16 06:39:37;;;;;;;;;25.00;23.75;;;;;;;;5000819;28;10765;-84
2022/03/16 06:42:10;;;;;;;;;22.00;20.25;;;;;;;;5024852;28;10656;-87
2022/03/16 06:44:37;;;;;;;;;19.75;19.75;;;;;;;;5016747;28;10496;-85
2022/03/16 06:47:05;;;;;;;;;20.75;18.00;;;;;;;;5021789;28;10660;-85
2022/03/16 06:49:33;;;;;;;;;30.75;28.00;;;;;;;;5006410;28;11474;-84
2022/03/16 06:52:00;;;;;;;;;22.25;19.75;;;;;;;;5018291;28;10770;-85
2022/03/16 06:54:28;;;;;;;;;21.25;21.25;;;;;;;;5024704;28;10559;-85
2022/03/16 06:56:56;;;;;;;;;23.00;21.25;;;;;;;;5025514;28;10581;-85
2022/03/16 06:59:25;;;;;;;;;22.75;21.25;;;;;;;;5030407;28;11430;-84
2022/03/16 07:01:52;;;;;;;;;29.25;24.25;;;;;;;;5023268;28;10706;-85
2022/03/16 07:04:20;;;;;;;;;24.75;24.50;;;;;;;;5016497;28;10633;-84
2022/03/16 07:06:47;;;;;;;;;20.75;20.75;;;;;;;;5027388;28;10603;-85
2022/03/16 07:09:14;;;;;;;;;24.00;23.00;;;;;;;;5029292;28;10433;-84
2022/03/16 07:11:42;;;;;;;;;25.25;23.25;;;;;;;;5023967;28;10640;-85
2022/03/16 07:16:58;;;;;;;;;27.25;26.25;;;;;;;;5010787;28;10376;-83
2022/03/16 07:19:25;;;;;;;;;25.25;24.75;;;;;;;;5023502;28;10733;-84
2022/03/16 07:21:52;;;;;;;;;22.25;20.75;;;;;;;;5024008;28;10514;-84
2022/03/16 07:24:20;;;;;;;;;19.00;19.00;;;;;;;;5026370;28;10411;-82
2022/03/16 07:26:47;;;;;;;;;26.25;20.75;;;;;;;;5024915;28;10432;-86
2022/03/16 07:29:14;;;;;;;;;32.00;30.50;;;;;;;;5030101;28;10485;-85
2022/03/16 07:31:42;;;;;;;;;26.00;23.25;;;;;;;;5023657;28;10574;-82
2022/03/16 07:34:11;;;;;;;;;25.00;25.00;;;;;;;;5030120;28;11237;-80
2022/03/16 07:36:38;;;;;;;;;31.25;24.25;;;;;;;;5022564;28;10517;-79
2022/03/16 07:39:05;;;;;;;;;24.50;24.00;;;;;;;;5024308;28;10427;-83
2022/03/16 07:41:34;;;;;;;;;25.75;19.75;;;;;;;;5021915;28;10567;-81
2022/03/16 07:44:02;;;;;;;;;20.50;20.25;;;;;;;;5037801;28;10453;-79
2022/03/16 07:46:29;;;;;;;;;20.75;19.50;;;;;;;;5028543;28;10262;-85
2022/03/16 07:48:56;;;;;;;;;21.25;21.25;;;;;;;;5025222;28;10167;-89
2022/03/16 07:51:25;;;;;;;;;24.00;21.25;;;;;;;;5016733;28;10360;-81
2022/03/16 07:53:52;;;;;;;;;24.75;22.25;;;;;;;;5025013;28;10276;-82
2022/03/16 07:56:20;;;;;;;;;24.00;23.25;;;;;;;;5023159;28;10235;-83
2022/03/16 07:58:48;;;;;;;;;24.75;20.50;;;;;;;;5022910;28;10168;-83
2022/03/16 08:01:15;;;;;;;;;24.75;21.75;;;;;;;;5027377;28;9916;-83
2022/03/16 08:03:43;;;;;;;;;20.75;20.75;;;;;;;;5035816;28;9940;-82
2022/03/16 08:06:10;;;;;;;;;24.50;21.25;;;;;;;;5041024;28;10048;-84
2022/03/16 08:08:39;;;;;;;;;20.75;20.75;;;;;;;;5026507;28;10034;-82
2022/03/16 08:11:07;;;;;;;;;22.75;21.50;;;;;;;;5022526;28;9978;-84
2022/03/16 08:13:36;;;;;;;;;28.25;25.25;;;;;;;;5023742;28;9937;-83
2022/03/16 08:16:04;;;;;;;;;31.25;30.00;;;;;;;;5028049;28;9990;-83
2022/03/16 08:18:31;;;;;;;;;20.25;20.25;;;;;;;;5032180;28;10102;-84
2022/03/16 08:20:59;;;;;;;;;22.00;19.50;;;;;;;;5032793;28;9878;-84
2022/03/16 08:23:26;;;;;;;;;26.00;26.00;;;;;;;;5027352;28;9833;-83
2022/03/16 08:25:57;;;;;;;;;21.50;18.00;;;;;;;;5026530;28;9972;-83
2022/03/16 08:28:24;;;;;;;;;25.25;23.00;;;;;;;;5024074;28;9911;-83
2022/03/16 08:30:52;;;;;;;;;26.75;26.75;;;;;;;;5023202;28;9918;-84
2022/03/16 08:33:19;;;;;;;;;27.75;25.00;;;;;;;;5025887;28;10061;-83
2022/03/16 08:35:47;;;;;;;;;26.25;26.25;;;;;;;;5022940;28;10122;-83
2022/03/16 08:38:14;;;;;;;;;30.00;23.50;;;;;;;;5022860;28;10932;-83
2022/03/16 08:40:42;;;;;;;;;26.75;25.25;;;;;;;;5024822;28;10124;-84
2022/03/16 08:43:11;;;;;;;;;26.50;22.25;;;;;;;;5023681;28;10199;-83
2022/03/16 08:45:40;;;;;;;;;31.00;22.75;;;;;;;;5025357;28;10095;-84
2022/03/16 08:48:08;;;;;;;;;21.75;21.75;;;;;;;;5027077;28;10096;-84
2022/03/16 08:50:35;;;;;;;;;29.50;21.00;;;;;;;;5032281;28;10041;-84
2022/03/16 08:53:03;;;;;;;;;19.75;19.75;;;;;;;;5028155;28;9975;-85
2022/03/16 08:55:30;;;;;;;;;23.75;21.50;;;;;;;;5017114;28;10022;-85
2022/03/16 08:57:58;;;;;;;;;29.50;23.75;;;;;;;;5027317;28;9997;-83
2022/03/16 09:00:27;;;;;;;;;26.00;22.50;;;;;;;;5022918;28;9871;-85
2022/03/16 09:02:54;;;;;;;;;26.50;24.75;;;;;;;;5024922;28;10079;-85
2022/03/16 09:05:21;;;;;;;;;19.50;15.50;;;;;;;;5025108;28;9966;-86
2022/03/16 09:07:51;;;;;;;;;23.00;21.25;;;;;;;;5024548;28;10124;-85
2022/03/16 09:10:18;;;;;;;;;20.25;18.25;;;;;;;;5007716;28;9955;-82
2022/03/16 09:12:46;;;;;;;;;16.50;16.00;;;;;;;;5023663;28;9972;-85
2022/03/16 09:15:13;;;;;;;;;26.25;26.25;;;;;;;;5025600;28;9941;-85
2022/03/16 09:17:42;;;;;;;;;24.75;20.25;;;;;;;;5006036;28;9991;-85
2022/03/16 09:20:09;;;;;;;;;28.75;26.50;;;;;;;;5025863;28;10944;-84
2022/03/16 09:22:37;;;;;;;;;28.75;23.25;;;;;;;;5025452;28;9940;-85
2022/03/16 09:25:06;;;;;;;;;22.50;22.00;;;;;;;;5009508;28;9893;-85
2022/03/16 09:27:36;;;;;;;;;25.75;25.75;;;;;;;;5024577;28;9884;-85
2022/03/16 09:30:08;;;;;;;;;23.50;21.75;;;;;;;;5024732;28;9835;-82
2022/03/16 09:32:37;;;;;;;;;30.25;26.25;;;;;;;;5046122;28;10406;-85
2022/03/16 09:35:09;;;;;;;;;31.75;28.50;;;;;;;;5023544;28;9930;-84
2022/03/16 09:37:36;;;;;;;;;23.25;21.75;;;;;;;;5025145;28;9760;-85
2022/03/16 09:40:07;;;;;;;;;22.50;19.25;;;;;;;;5023896;28;9740;-85
2022/03/16 09:42:35;;;;;;;;;22.50;22.00;;;;;;;;5008587;28;9734;-84
2022/03/16 09:45:05;;;;;;;;;20.50;20.25;;;;;;;;5025507;28;9810;-85
2022/03/16 09:47:32;;;;;;;;;25.75;24.00;;;;;;;;5025814;28;9590;-84
2022/03/16 09:50:02;;;;;;;;;29.25;23.25;;;;;;;;5025964;28;9666;-86
2022/03/16 09:52:31;;;;;;;;;22.00;22.00;;;;;;;;5007585;28;9556;-85
2022/03/16 09:54:59;;;;;;;;;20.75;20.75;;;;;;;;5029955;28;9570;-85
2022/03/16 09:57:27;;;;;;;;;22.00;21.25;;;;;;;;5026578;28;9709;-84
2022/03/16 09:59:54;;;;;;;;;28.75;21.75;;;;;;;;5014090;28;9741;-86
2022/03/16 10:02:26;;;;;;;;;25.50;23.25;;;;;;;;5022813;28;9674;-83
2022/03/16 10:04:54;;;;;;;;;26.00;24.75;;;;;;;;5007602;28;9680;-85
2022/03/16 10:07:28;;;;;;;;;26.50;25.75;;;;;;;;5025179;28;9881;-86
2022/03/16 10:15:31;;;;;;;;;25.25;24.25;;;;;;;;5008996;28;9679;-83
2022/03/16 10:18:01;;;;;;;;;23.50;23.50;;;;;;;;5025246;28;9930;-84
2022/03/16 10:20:32;;;;;;;;;25.00;21.50;;;;;;;;5024170;28;9632;-84
2022/03/16 10:23:08;;;;;;;;;24.25;23.75;;;;;;;;5023517;28;10534;-85
2022/03/16 10:25:39;;;;;;;;;22.75;22.75;;;;;;;;5025298;28;9819;-85
2022/03/16 10:28:11;;;;;;;;;24.50;22.25;;;;;;;;5026570;28;9722;-84
2022/03/16 10:30:55;;;;;;;;;18.00;18.00;;;;;;;;5028106;28;9532;-86
2022/03/16 10:33:24;;;;;;;;;28.75;24.00;;;;;;;;5017264;28;9558;-84
2022/03/16 10:36:07;;;;;;;;;23.25;23.25;;;;;;;;5028457;28;9790;-86
2022/03/16 10:38:39;;;;;;;;;23.00;22.75;;;;;;;;5028089;28;9664;-86
2022/03/16 10:41:13;;;;;;;;;25.00;22.25;;;;;;;;5027413;28;10380;-83
2022/03/16 10:46:39;;;;;;;;;20.00;20.00;;;;;;;;5024945;28;9462;-86
2022/03/16 10:49:10;;;;;;;;;28.50;25.50;;;;;;;;5027444;28;9416;-86
2022/03/16 10:51:43;;;;;;;;;21.50;21.50;;;;;;;;5022501;28;9458;-86
2022/03/16 10:54:13;;;;;;;;;29.00;27.00;;;;;;;;5024192;28;9568;-86
2022/03/16 10:56:44;;;;;;;;;24.25;24.25;;;;;;;;5027264;28;9631;-85
2022/03/16 10:59:15;;;;;;;;;23.00;21.50;;;;;;;;5027304;28;9642;-86
2022/03/16 11:01:43;;;;;;;;;24.50;23.00;;;;;;;;5029683;28;9632;-86
2022/03/16 11:04:10;;;;;;;;;19.75;19.75;;;;;;;;5027323;28;9653;-84
2022/03/16 11:06:38;;;;;;;;;26.50;24.00;;;;;;;;5027218;28;9645;-85
2022/03/16 11:09:08;;;;;;;;;26.75;24.75;;;;;;;;5028224;28;9565;-87
2022/03/16 11:14:22;;;;;;;;;30.50;28.00;;;;;;;;5028906;28;9440;-84
2022/03/16 11:16:50;;;;;;;;;23.50;23.25;;;;;;;;5009594;28;9662;-85
2022/03/16 11:19:18;;;;;;;;;25.75;24.50;;;;;;;;5028198;28;9619;-87
2022/03/16 11:21:50;;;;;;;;;23.00;22.00;;;;;;;;5027057;28;9637;-86
2022/03/16 11:24:28;;;;;;;;;26.25;22.50;;;;;;;;5013507;28;9493;-85
2022/03/16 11:27:09;;;;;;;;;22.67;18.67;;;;;;;;5034033;28;10354;-85
2022/03/16 11:29:44;;;;;;;;;21.75;21.75;;;;;;;;5026611;28;9439;-85
2022/03/16 11:32:14;;;;;;;;;25.33;22.67;;;;;;;;5030154;28;9372;-86
2022/03/16 11:34:48;;;;;;;;;26.33;19.67;;;;;;;;5027563;28;9438;-86
2022/03/16 11:37:15;;;;;;;;;19.33;19.00;;;;;;;;5027718;28;9261;-86
2022/03/16 11:39:44;;;;;;;;;21.67;21.00;;;;;;;;5007729;28;10023;-86
2022/03/16 11:42:17;;;;;;;;;24.33;22.33;;;;;;;;5008948;28;9206;-85
2022/03/16 11:45:19;;;;;;;;;28.67;26.33;;;;;;;;5020867;28;9202;-87
2022/03/16 11:47:47;;;;;;;;;21.33;21.33;;;;;;;;5022252;28;9327;-87
2022/03/16 11:51:04;;;;;;;;;20.33;19.67;;;;;;;;5012486;28;9170;-85
2022/03/16 11:54:10;;;;;;;;;20.00;20.00;;;;;;;;5018972;28;9096;-84
2022/03/16 11:56:53;;;;;;;;;26.33;22.33;;;;;;;;5004947;28;9033;-81
2022/03/16 11:59:48;;;;;;;;;18.67;17.00;;;;;;;;5021891;28;9288;-83
2022/03/16 12:02:22;;;;;;;;;26.00;22.00;;;;;;;;4999105;28;8987;-78
2022/03/16 12:04:57;;;;;;;;;20.33;19.33;;;;;;;;5021151;28;9114;-79
2022/03/16 12:07:29;;;;;;;;;21.67;21.67;;;;;;;;5019507;28;9127;-80
2022/03/16 12:10:06;;;;;;;;;21.33;19.00;;;;;;;;5021825;28;9315;-82
2022/03/16 12:12:54;;;;;;;;;25.00;23.33;;;;;;;;5024888;28;9149;-79
2022/03/16 12:15:32;;;;;;;;;26.00;21.33;;;;;;;;5022502;28;9153;-79
2022/03/16 12:18:34;;;;;;;;;20.75;17.50;;;;;;;;5025392;28;9131;-82
2022/03/16 12:21:08;;;;;;;;;24.33;22.67;;;;;;;;4964045;28;8955;-84
2022/03/16 12:23:58;;;;;;;;;23.67;21.33;;;;;;;;4964449;28;9021;-83
2022/03/16 12:26:30;;;;;;;;;25.00;25.00;;;;;;;;5004913;28;9129;-85
2022/03/16 12:29:05;;;;;;;;;27.50;22.75;;;;;;;;5025252;28;9045;-81
2022/03/16 12:31:34;;;;;;;;;26.00;26.00;;;;;;;;4995550;28;8791;-81
2022/03/16 12:34:01;;;;;;;;;37.33;31.67;;;;;;;;5024860;28;9040;-80
2022/03/16 12:36:32;;;;;;;;;32.75;26.50;;;;;;;;5027416;28;8962;-84
2022/03/16 12:39:01;;;;;;;;;27.00;24.75;;;;;;;;5024555;28;8835;-81
2022/03/16 12:44:18;;;;;;;;;23.50;21.50;;;;;;;;5010492;28;8978;-82
2022/03/16 12:46:52;;;;;;;;;31.00;27.50;;;;;;;;4997284;28;9668;-85
2022/03/16 12:49:21;;;;;;;;;22.50;22.25;;;;;;;;4998238;28;8877;-81
2022/03/16 12:51:52;;;;;;;;;26.50;23.25;;;;;;;;4999292;28;8893;-83
2022/03/16 12:54:27;;;;;;;;;26.50;26.50;;;;;;;;5006673;28;8853;-83
2022/03/16 12:56:58;;;;;;;;;25.75;23.75;;;;;;;;4999780;28;8874;-78
2022/03/16 12:59:30;;;;;;;;;31.67;29.00;;;;;;;;4984348;28;8900;-80
2022/03/16 13:01:59;;;;;;;;;33.50;29.75;;;;;;;;5004746;28;9011;-78
2022/03/16 13:04:28;;;;;;;;;30.75;26.75;;;;;;;;4999067;28;8861;-80
2022/03/16 13:06:59;;;;;;;;;26.50;26.00;;;;;;;;4997769;28;9631;-83
2022/03/16 13:09:31;;;;;;;;;33.25;29.00;;;;;;;;4991630;28;9673;-79
2022/03/16 13:12:09;;;;;;;;;27.50;25.50;;;;;;;;4988693;28;8885;-79
2022/03/16 13:14:38;;;;;;;;;25.50;25.50;;;;;;;;4999646;28;8873;-78
2022/03/16 13:17:10;;;;;;;;;28.00;23.75;;;;;;;;5006189;28;8995;-79
2022/03/16 13:19:38;;;;;;;;;29.00;24.00;;;;;;;;5006597;28;8877;-79
2022/03/16 13:22:09;;;;;;;;;32.50;26.50;;;;;;;;5000939;28;8866;-79
2022/03/16 13:24:40;;;;;;;;;25.75;25.75;;;;;;;;4997230;28;8893;-78
2022/03/16 13:27:09;;;;;;;;;29.00;25.25;;;;;;;;4987743;28;8900;-79
2022/03/16 13:29:38;;;;;;;;;29.75;28.25;;;;;;;;4992482;28;8897;-79
2022/03/16 13:32:07;;;;;;;;;27.25;24.00;;;;;;;;4990314;28;8872;-78
2022/03/16 13:34:36;;;;;;;;;29.00;25.75;;;;;;;;4983239;28;8906;-79
2022/03/16 13:37:03;;;;;;;;;22.50;22.00;;;;;;;;4993674;28;8876;-78
2022/03/16 13:39:33;;;;;;;;;27.75;24.25;;;;;;;;4995297;28;8873;-78
2022/03/16 13:42:12;;;;;;;;;22.00;21.75;;;;;;;;4998958;28;8877;-79
2022/03/16 13:44:41;;;;;;;;;24.50;23.75;;;;;;;;5006942;28;8874;-78
2022/03/16 13:47:24;;;;;;;;;20.25;20.25;;;;;;;;5020657;28;8997;-79
2022/03/16 13:49:55;;;;;;;;;21.75;19.75;;;;;;;;5013218;28;8916;-77
2022/03/16 13:52:25;;;;;;;;;24.00;21.25;;;;;;;;5010394;28;8868;-79
2022/03/16 13:54:55;;;;;;;;;20.00;16.75;;;;;;;;5018343;28;8935;-79
2022/03/16 13:57:36;;;;;;;;;16.25;16.25;;;;;;;;5020405;28;8870;-79
2022/03/16 14:00:09;;;;;;;;;20.50;19.00;;;;;;;;5004002;28;8838;-78
2022/03/16 14:02:37;;;;;;;;;12.00;12.00;;;;;;;;5017973;28;8823;-79
2022/03/16 14:05:06;;;;;;;;;21.25;19.50;;;;;;;;5020961;28;10164;-79
2022/03/16 14:07:43;;;;;;;;;24.25;23.00;;;;;;;;5020455;28;8870;-78
2022/03/16 14:10:13;;;;;;;;;20.50;19.00;;;;;;;;5017875;28;8874;-78
2022/03/16 14:12:42;;;;;;;;;21.75;20.75;;;;;;;;5019765;28;8854;-78
2022/03/16 14:15:16;;;;;;;;;23.75;22.00;;;;;;;;5018497;28;8929;-77
2022/03/16 14:17:48;;;;;;;;;22.00;22.00;;;;;;;;5002976;28;8913;-78
2022/03/16 14:20:18;;;;;;;;;21.25;18.00;;;;;;;;5020957;28;9669;-79
2022/03/16 14:22:49;;;;;;;;;17.00;13.50;;;;;;;;5002957;28;8902;-79
2022/03/16 14:25:20;;;;;;;;;23.25;22.75;;;;;;;;5013336;28;8847;-80
2022/03/16 14:27:53;;;;;;;;;22.00;18.75;;;;;;;;5020644;28;8885;-79
2022/03/16 14:30:22;;;;;;;;;21.25;20.50;;;;;;;;5018831;28;8858;-78
2022/03/16 14:32:54;;;;;;;;;27.50;25.75;;;;;;;;5017384;28;8874;-79
2022/03/16 14:35:22;;;;;;;;;21.25;17.25;;;;;;;;5018735;28;8870;-79
2022/03/16 14:37:51;;;;;;;;;21.25;21.00;;;;;;;;5018649;28;8854;-79
2022/03/16 14:40:22;;;;;;;;;23.00;22.00;;;;;;;;5002305;28;8877;-81
2022/03/16 14:42:53;;;;;;;;;26.25;24.25;;;;;;;;5017794;28;8889;-80
2022/03/16 14:45:22;;;;;;;;;23.25;23.25;;;;;;;;4997273;28;9577;-78
2022/03/16 14:47:49;;;;;;;;;24.50;23.00;;;;;;;;5000594;28;8873;-79
2022/03/16 14:50:18;;;;;;;;;28.50;25.25;;;;;;;;5000059;28;8919;-84